createdAt,value
2023-03-06T00:01:08.106Z,51.30
2023-03-06T00:03:34.649Z,51.30
2023-03-06T00:06:01.202Z,51.30
2023-03-06T00:08:29.631Z,51.30
2023-03-06T00:10:56.166Z,51.40
2023-03-06T00:13:22.686Z,51.40
2023-03-06T00:15:49.224Z,51.30
2023-03-06T00:18:15.782Z,51.30
2023-03-06T00:20:42.271Z,51.40
2023-03-06T00:23:08.749Z,51.30
2023-03-06T00:25:35.223Z,51.30
2023-03-06T00:28:01.712Z,51.40
2023-03-06T00:30:28.324Z,51.30
2023-03-06T00:32:54.810Z,51.30
2023-03-06T00:35:21.338Z,51.30
2023-03-06T00:37:47.831Z,51.40
2023-03-06T00:40:14.311Z,51.40
2023-03-06T00:42:41.629Z,51.40
2023-03-06T00:45:08.097Z,51.40
2023-03-06T00:47:34.599Z,51.40
2023-03-06T00:50:01.095Z,51.40
2023-03-06T00:52:27.597Z,51.40
2023-03-06T00:54:54.070Z,51.40
2023-03-06T00:57:20.562Z,51.40
2023-03-06T00:59:47.031Z,51.50
2023-03-06T01:02:13.538Z,51.40
2023-03-06T01:04:40.033Z,51.40
2023-03-06T01:07:06.508Z,51.40
2023-03-06T01:09:35.691Z,51.40
2023-03-06T01:12:02.200Z,51.40
2023-03-06T01:14:28.700Z,51.40
2023-03-06T01:16:55.194Z,51.40
2023-03-06T01:19:21.676Z,51.40
2023-03-06T01:21:48.157Z,51.40
2023-03-06T01:24:14.650Z,51.40
2023-03-06T01:26:41.126Z,51.40
2023-03-06T01:29:07.607Z,51.40
2023-03-06T01:31:34.146Z,51.40
2023-03-06T01:34:00.643Z,51.40
2023-03-06T01:36:27.117Z,51.40
2023-03-06T01:38:53.614Z,51.50
2023-03-06T01:41:20.089Z,51.50
2023-03-06T01:43:46.566Z,51.50
2023-03-06T01:46:13.089Z,51.50
2023-03-06T01:48:39.610Z,51.40
2023-03-06T01:51:06.082Z,51.50
2023-03-06T01:53:32.579Z,51.50
2023-03-06T01:55:59.065Z,51.50
2023-03-06T01:58:25.555Z,51.50
2023-03-06T02:00:52.055Z,51.40
2023-03-06T02:03:18.548Z,51.40
2023-03-06T02:05:45.021Z,51.50
2023-03-06T02:08:11.519Z,51.50
2023-03-06T02:10:37.980Z,51.50
2023-03-06T02:13:04.446Z,51.50
2023-03-06T02:15:30.924Z,51.40
2023-03-06T02:17:57.384Z,51.40
2023-03-06T02:20:23.840Z,51.40
2023-03-06T02:22:50.324Z,51.40
2023-03-06T02:25:16.807Z,51.40
2023-03-06T02:27:43.296Z,51.40
2023-03-06T02:30:11.746Z,51.40
2023-03-06T02:32:38.285Z,51.50
2023-03-06T02:35:04.852Z,51.40
2023-03-06T02:37:31.324Z,51.50
2023-03-06T02:39:59.743Z,51.50
2023-03-06T02:42:26.248Z,51.50
2023-03-06T02:44:52.741Z,51.50
2023-03-06T02:47:19.236Z,51.40
2023-03-06T02:49:45.725Z,51.40
2023-03-06T02:52:12.200Z,51.20
2023-03-06T02:54:38.732Z,51.40
2023-03-06T02:57:05.229Z,51.40
2023-03-06T02:59:31.887Z,51.40
2023-03-06T03:01:58.373Z,51.50
2023-03-06T03:04:24.924Z,51.50
2023-03-06T03:06:51.460Z,51.40
2023-03-06T03:09:17.978Z,51.40
2023-03-06T03:11:44.477Z,51.50
2023-03-06T03:14:11.788Z,51.40
2023-03-06T03:16:39.283Z,51.30
2023-03-06T03:19:05.870Z,51.40
2023-03-06T03:21:32.349Z,51.40
2023-03-06T03:23:58.850Z,51.30
2023-03-06T03:26:25.324Z,51.40
2023-03-06T03:28:51.827Z,51.30
2023-03-06T03:31:18.291Z,51.30
2023-03-06T03:33:44.817Z,51.30
2023-03-06T03:36:11.316Z,51.30
2023-03-06T03:38:37.794Z,51.30
2023-03-06T03:41:05.783Z,51.20
2023-03-06T03:43:32.272Z,51.30
2023-03-06T03:45:58.773Z,51.30
2023-03-06T03:48:25.257Z,51.40
2023-03-06T03:50:51.739Z,51.30
2023-03-06T03:53:18.225Z,51.30
2023-03-06T03:55:44.712Z,51.30
2023-03-06T03:58:11.202Z,51.30
2023-03-06T04:00:37.710Z,51.30
2023-03-06T04:03:04.185Z,51.30
2023-03-06T04:05:30.667Z,51.30
2023-03-06T04:07:57.152Z,51.30
2023-03-06T04:10:23.656Z,51.30
2023-03-06T04:12:50.138Z,51.30
2023-03-06T04:15:16.649Z,51.30
2023-03-06T04:17:43.134Z,51.30
2023-03-06T04:20:09.671Z,51.30
2023-03-06T04:22:36.185Z,51.40
2023-03-06T04:25:02.700Z,51.30
2023-03-06T04:27:29.180Z,51.30
2023-03-06T04:29:55.667Z,51.10
2023-03-06T04:32:22.164Z,51.30
2023-03-06T04:34:48.646Z,51.20
2023-03-06T04:37:15.124Z,51.30
2023-03-06T04:39:41.607Z,51.20
2023-03-06T04:42:08.100Z,51.20
2023-03-06T04:44:34.587Z,51.20
2023-03-06T04:47:01.070Z,51.10
2023-03-06T04:49:27.559Z,51.10
2023-03-06T04:51:54.046Z,51.10
2023-03-06T04:54:20.522Z,51.20
2023-03-06T04:56:47.021Z,51.20
2023-03-06T04:59:13.515Z,51.10
2023-03-06T05:01:40.015Z,51.20
2023-03-06T05:04:06.501Z,51.20
2023-03-06T05:06:32.986Z,51.10
2023-03-06T05:08:59.464Z,51.00
2023-03-06T05:11:25.934Z,50.90
2023-03-06T05:13:52.421Z,51.10
2023-03-06T05:16:18.905Z,51.10
2023-03-06T05:18:45.377Z,51.10
2023-03-06T05:21:11.857Z,50.90
2023-03-06T05:23:38.345Z,51.10
2023-03-06T05:26:04.829Z,50.90
2023-03-06T05:28:31.317Z,50.90
2023-03-06T05:30:57.827Z,51.00
2023-03-06T05:33:24.313Z,50.90
2023-03-06T05:35:50.816Z,51.00
2023-03-06T05:38:17.309Z,51.00
2023-03-06T05:40:43.837Z,51.00
2023-03-06T05:43:11.881Z,51.00
2023-03-06T05:45:38.456Z,51.00
2023-03-06T05:48:04.957Z,50.90
2023-03-06T05:50:31.435Z,50.80
2023-03-06T05:52:57.924Z,50.90
2023-03-06T05:55:24.467Z,50.90
2023-03-06T05:57:50.945Z,50.80
2023-03-06T06:00:17.447Z,50.80
2023-03-06T06:02:44.040Z,50.80
2023-03-06T06:05:12.894Z,50.90
2023-03-06T06:07:39.596Z,50.80
2023-03-06T06:10:06.101Z,50.80
2023-03-06T06:12:32.590Z,50.80
2023-03-06T06:14:59.084Z,50.80
2023-03-06T06:17:25.579Z,50.80
2023-03-06T06:19:52.059Z,50.80
2023-03-06T06:22:18.551Z,50.70
2023-03-06T06:24:47.870Z,50.80
2023-03-06T06:27:14.353Z,50.80
2023-03-06T06:29:41.897Z,50.70
2023-03-06T06:32:08.428Z,50.70
2023-03-06T06:34:34.914Z,50.70
2023-03-06T06:37:01.420Z,50.70
2023-03-06T06:39:27.897Z,50.70
2023-03-06T06:42:14.484Z,50.70
2023-03-06T06:44:40.847Z,50.70
2023-03-06T06:47:24.867Z,50.60
2023-03-06T06:49:51.982Z,50.60
2023-03-06T06:52:18.501Z,50.60
2023-03-06T06:54:44.993Z,50.60
2023-03-06T06:57:11.478Z,50.60
2023-03-06T06:59:37.966Z,50.60
2023-03-06T07:02:04.452Z,50.60
2023-03-06T07:04:30.923Z,50.60
2023-03-06T07:06:57.419Z,50.60
2023-03-06T07:09:23.891Z,50.50
2023-03-06T07:11:50.421Z,50.50
2023-03-06T07:14:16.895Z,50.40
2023-03-06T07:16:43.372Z,50.50
2023-03-06T07:19:09.862Z,50.40
2023-03-06T07:21:36.425Z,50.50
2023-03-06T07:24:02.945Z,50.50
2023-03-06T07:26:29.425Z,50.40
2023-03-06T07:28:55.904Z,50.50
2023-03-06T07:31:22.424Z,50.50
2023-03-06T07:33:48.920Z,50.50
2023-03-06T07:36:15.424Z,50.40
2023-03-06T07:38:41.914Z,50.50
2023-03-06T07:41:08.413Z,50.50
2023-03-06T07:43:34.883Z,50.50
2023-03-06T07:46:01.354Z,50.40
2023-03-06T07:48:27.838Z,50.50
2023-03-06T07:50:54.342Z,50.40
2023-03-06T07:53:20.809Z,50.30
2023-03-06T07:55:47.313Z,50.40
2023-03-06T07:58:13.794Z,50.40
2023-03-06T08:00:40.329Z,50.40
2023-03-06T08:03:06.860Z,50.40
2023-03-06T08:05:33.427Z,50.40
2023-03-06T08:07:59.924Z,50.40
2023-03-06T08:10:26.476Z,50.40
2023-03-06T08:12:53.011Z,50.40
2023-03-06T08:15:19.521Z,50.30
2023-03-06T08:17:45.987Z,50.30
2023-03-06T08:20:15.310Z,50.40
2023-03-06T08:22:41.781Z,50.40
2023-03-06T08:25:08.305Z,50.40
2023-03-06T08:27:34.831Z,50.50
2023-03-06T08:30:01.319Z,50.50
2023-03-06T08:32:27.889Z,50.40
2023-03-06T08:34:54.392Z,50.40
2023-03-06T08:37:24.039Z,50.30
2023-03-06T08:39:50.543Z,50.40
2023-03-06T08:42:17.030Z,50.40
2023-03-06T08:44:43.516Z,50.40
2023-03-06T08:47:10.013Z,50.40
2023-03-06T08:49:36.519Z,50.40
2023-03-06T08:52:02.994Z,50.40
2023-03-06T08:54:29.463Z,50.40
2023-03-06T08:56:55.944Z,50.40
2023-03-06T08:59:22.442Z,50.40
2023-03-06T09:01:48.925Z,50.50
2023-03-06T09:04:15.405Z,50.40
2023-03-06T09:06:41.909Z,50.30
2023-03-06T09:09:08.407Z,50.40
2023-03-06T09:11:34.927Z,50.50
2023-03-06T09:14:01.407Z,50.50
2023-03-06T09:16:27.930Z,50.50
2023-03-06T09:18:54.408Z,50.50
2023-03-06T09:21:20.912Z,50.50
2023-03-06T09:23:47.412Z,50.30
2023-03-06T09:26:13.937Z,50.50
2023-03-06T09:28:40.394Z,50.50
2023-03-06T09:31:06.977Z,50.30
2023-03-06T09:33:33.506Z,50.50
2023-03-06T09:36:00.105Z,50.50
2023-03-06T09:38:26.639Z,50.50
2023-03-06T09:40:53.107Z,50.50
2023-03-06T09:43:19.582Z,50.50
2023-03-06T09:45:46.094Z,50.30
2023-03-06T09:48:12.593Z,50.50
2023-03-06T09:50:39.069Z,50.50
2023-03-06T09:53:05.555Z,50.50
2023-03-06T09:55:32.021Z,50.50
2023-03-06T09:57:58.510Z,50.60
2023-03-06T10:00:24.979Z,50.60
2023-03-06T10:02:54.218Z,50.70
2023-03-06T10:05:20.771Z,50.60
2023-03-06T10:07:47.245Z,50.70
2023-03-06T10:10:13.726Z,50.50
2023-03-06T10:12:40.209Z,50.70
2023-03-06T10:15:06.702Z,50.70
2023-03-06T10:17:33.283Z,50.70
2023-03-06T10:19:59.763Z,50.70
2023-03-06T10:22:26.250Z,50.80
2023-03-06T10:24:52.727Z,50.70
2023-03-06T10:27:19.311Z,50.80
2023-03-06T10:30:01.258Z,50.70
2023-03-06T10:32:34.275Z,50.70
2023-03-06T10:35:06.166Z,50.80
2023-03-06T10:37:32.722Z,50.80
2023-03-06T10:39:59.192Z,50.80
2023-03-06T10:42:27.033Z,50.80
2023-03-06T10:44:54.446Z,50.80
2023-03-06T10:47:20.927Z,50.60
2023-03-06T10:49:47.416Z,50.70
2023-03-06T10:52:13.951Z,50.80
2023-03-06T10:54:40.435Z,50.80
2023-03-06T10:57:06.944Z,50.90
2023-03-06T10:59:36.115Z,50.80
2023-03-06T11:02:02.671Z,50.80
2023-03-06T11:04:29.223Z,50.80
2023-03-06T11:06:55.756Z,50.80
2023-03-06T11:09:22.222Z,50.80
2023-03-06T11:11:48.706Z,50.80
2023-03-06T11:14:15.181Z,50.80
2023-03-06T11:16:41.669Z,50.80
2023-03-06T11:19:08.161Z,50.70
2023-03-06T11:21:34.620Z,50.80
2023-03-06T11:24:01.136Z,50.80
2023-03-06T11:26:27.624Z,50.80
2023-03-06T11:28:54.184Z,50.80
2023-03-06T11:31:20.727Z,50.80
2023-03-06T11:33:47.239Z,50.80
2023-03-06T11:36:13.717Z,50.80
2023-03-06T11:38:40.230Z,50.80
2023-03-06T11:41:06.721Z,50.60
2023-03-06T11:43:33.206Z,50.70
2023-03-06T11:45:59.667Z,50.60
2023-03-06T11:48:26.168Z,50.70
2023-03-06T11:50:52.673Z,50.70
2023-03-06T11:53:19.238Z,50.80
2023-03-06T11:55:45.755Z,50.70
2023-03-06T11:58:12.310Z,50.70
2023-03-06T12:00:38.777Z,50.60
2023-03-06T12:03:05.241Z,50.70
2023-03-06T12:05:31.813Z,50.50
2023-03-06T12:07:58.289Z,50.40
2023-03-06T12:10:24.784Z,50.40
2023-03-06T12:12:51.262Z,50.30
2023-03-06T12:15:17.751Z,50.30
2023-03-06T12:17:44.235Z,50.30
2023-03-06T12:20:10.716Z,50.30
2023-03-06T12:22:37.216Z,50.20
2023-03-06T12:25:03.695Z,50.20
2023-03-06T12:27:30.187Z,50.20
2023-03-06T12:29:56.657Z,50.10
2023-03-06T12:32:23.154Z,50.10
2023-03-06T12:34:49.643Z,50.00
2023-03-06T12:37:16.182Z,50.00
2023-03-06T12:39:42.672Z,50.00
2023-03-06T12:42:17.890Z,49.80
2023-03-06T12:44:49.051Z,49.90
2023-03-06T12:47:15.526Z,49.90
2023-03-06T12:49:42.033Z,49.90
2023-03-06T12:52:08.916Z,49.90
2023-03-06T12:54:36.190Z,49.80
2023-03-06T12:57:02.649Z,49.80
2023-03-06T12:59:29.159Z,49.90
2023-03-06T13:01:55.742Z,49.80
2023-03-06T13:04:22.306Z,49.80
2023-03-06T13:06:51.110Z,49.90
2023-03-06T13:09:17.956Z,49.90
2023-03-06T13:11:44.428Z,49.80
2023-03-06T13:14:10.897Z,49.70
2023-03-06T13:16:37.413Z,49.90
2023-03-06T13:19:03.949Z,49.80
2023-03-06T13:21:30.444Z,49.60
2023-03-06T13:23:56.905Z,49.80
2023-03-06T13:26:23.382Z,49.70
2023-03-06T13:28:49.877Z,49.70
2023-03-06T13:31:27.048Z,49.50
2023-03-06T13:33:54.097Z,49.70
2023-03-06T13:36:20.586Z,49.60
2023-03-06T13:38:47.052Z,49.70
2023-03-06T13:41:13.536Z,49.60
2023-03-06T13:43:40.057Z,49.60
2023-03-06T13:46:06.559Z,49.70
2023-03-06T13:48:44.152Z,49.70
2023-03-06T13:51:11.900Z,49.60
2023-03-06T13:53:38.376Z,49.60
2023-03-06T13:56:04.874Z,49.70
2023-03-06T13:58:36.293Z,49.60
2023-03-06T14:01:02.777Z,49.50
2023-03-06T14:03:29.252Z,49.60
2023-03-06T14:05:55.740Z,49.50
2023-03-06T14:08:22.212Z,49.40
2023-03-06T14:10:48.707Z,49.40
2023-03-06T14:13:15.206Z,49.50
2023-03-06T14:15:41.758Z,49.30
2023-03-06T14:18:08.273Z,49.40
2023-03-06T14:20:34.785Z,49.50
2023-03-06T14:23:01.247Z,49.40
2023-03-06T14:25:27.764Z,49.50
2023-03-06T14:27:58.131Z,49.40
2023-03-06T14:30:26.928Z,49.40
2023-03-06T14:32:53.427Z,49.40
2023-03-06T14:35:19.951Z,49.40
2023-03-06T14:37:46.445Z,49.20
2023-03-06T14:40:12.941Z,49.40
2023-03-06T14:42:39.425Z,49.40
2023-03-06T14:45:05.957Z,49.40
2023-03-06T14:47:32.434Z,49.30
2023-03-06T14:49:58.911Z,49.30
2023-03-06T14:52:25.406Z,49.30
2023-03-06T14:54:51.891Z,49.30
2023-03-06T14:57:18.368Z,49.20
2023-03-06T14:59:48.554Z,49.20
2023-03-06T15:02:18.337Z,49.30
2023-03-06T15:04:44.813Z,49.10
2023-03-06T15:07:11.351Z,49.20
2023-03-06T15:09:37.841Z,49.20
2023-03-06T15:12:04.310Z,49.20
2023-03-06T15:14:30.793Z,49.20
2023-03-06T15:16:57.277Z,49.20
2023-03-06T15:19:23.751Z,49.10
2023-03-06T15:21:50.213Z,49.20
2023-03-06T15:24:16.681Z,49.20
2023-03-06T15:26:43.174Z,49.10
2023-03-06T15:29:10.352Z,49.20
2023-03-06T15:31:37.167Z,49.10
2023-03-06T15:34:03.668Z,48.90
2023-03-06T15:36:30.134Z,49.00
2023-03-06T15:38:56.607Z,49.00
2023-03-06T15:41:23.086Z,49.00
2023-03-06T15:43:49.569Z,49.00
2023-03-06T15:46:16.048Z,48.90
2023-03-06T15:48:42.511Z,48.90
2023-03-06T15:51:09.042Z,48.80
2023-03-06T15:53:35.543Z,48.80
2023-03-06T15:56:02.059Z,48.80
2023-03-06T15:58:28.529Z,48.60
2023-03-06T16:00:55.098Z,48.60
2023-03-06T16:03:21.591Z,48.70
2023-03-06T16:05:48.096Z,48.70
2023-03-06T16:08:14.567Z,48.60
2023-03-06T16:10:41.074Z,48.60
2023-03-06T16:13:07.548Z,48.70
2023-03-06T16:15:34.043Z,48.70
2023-03-06T16:18:00.514Z,48.70
2023-03-06T16:20:27.014Z,48.60
2023-03-06T16:22:53.482Z,48.70
2023-03-06T16:25:19.981Z,48.70
2023-03-06T16:27:46.439Z,48.70
2023-03-06T16:30:12.942Z,48.70
2023-03-06T16:32:39.470Z,48.80
2023-03-06T16:35:05.936Z,48.70
2023-03-06T16:37:32.454Z,48.70
2023-03-06T16:39:58.943Z,48.90
2023-03-06T16:42:25.418Z,48.90
2023-03-06T16:44:54.391Z,48.90
2023-03-06T16:47:20.852Z,48.70
2023-03-06T16:49:47.422Z,48.80
2023-03-06T16:52:13.952Z,48.90
2023-03-06T16:54:40.427Z,49.00
2023-03-06T16:57:06.919Z,49.00
2023-03-06T16:59:33.378Z,49.00
2023-03-06T17:01:59.860Z,49.00
2023-03-06T17:04:26.348Z,49.10
2023-03-06T17:06:52.902Z,49.10
2023-03-06T17:09:19.380Z,49.20
2023-03-06T17:11:45.839Z,49.20
2023-03-06T17:14:12.334Z,49.20
2023-03-06T17:16:38.818Z,49.00
2023-03-06T17:19:05.304Z,49.20
2023-03-06T17:21:31.780Z,49.20
2023-03-06T17:23:58.268Z,49.20
2023-03-06T17:26:24.901Z,49.30
2023-03-06T17:28:51.374Z,49.30
2023-03-06T17:31:17.942Z,49.30
2023-03-06T17:33:44.452Z,49.40
2023-03-06T17:36:10.959Z,49.40
2023-03-06T17:38:37.468Z,49.50
2023-03-06T17:41:03.985Z,49.50
2023-03-06T17:43:30.531Z,49.50
2023-03-06T17:45:57.053Z,49.50
2023-03-06T17:48:23.543Z,49.50
2023-03-06T17:50:50.035Z,49.50
2023-03-06T17:53:16.512Z,49.50
2023-03-06T17:55:42.999Z,49.60
2023-03-06T17:58:12.036Z,49.60
2023-03-06T18:00:38.880Z,49.60
2023-03-06T18:03:05.340Z,49.60
2023-03-06T18:05:31.828Z,49.60
2023-03-06T18:07:58.317Z,49.60
2023-03-06T18:10:24.800Z,49.60
2023-03-06T18:12:51.293Z,49.70
2023-03-06T18:15:17.760Z,49.50
2023-03-06T18:17:44.231Z,49.70
2023-03-06T18:20:10.696Z,49.50
2023-03-06T18:22:37.170Z,49.80
2023-03-06T18:25:03.627Z,49.80
2023-03-06T18:27:30.114Z,49.80
2023-03-06T18:29:56.602Z,49.70
2023-03-06T18:32:24.550Z,49.80
2023-03-06T18:34:54.542Z,49.80
2023-03-06T18:37:21.027Z,49.80
2023-03-06T18:39:47.516Z,49.90
2023-03-06T18:42:14.008Z,49.90
2023-03-06T18:44:40.471Z,50.00
2023-03-06T18:47:06.956Z,49.90
2023-03-06T18:49:33.433Z,50.00
2023-03-06T18:51:59.904Z,50.00
2023-03-06T18:54:26.356Z,50.00
2023-03-06T18:56:52.835Z,50.00
2023-03-06T18:59:19.305Z,50.00
2023-03-06T19:01:45.790Z,49.90
2023-03-06T19:04:12.315Z,50.00
2023-03-06T19:06:38.828Z,50.10
2023-03-06T19:09:05.314Z,50.00
2023-03-06T19:11:31.796Z,50.10
2023-03-06T19:13:58.274Z,50.10
2023-03-06T19:16:30.588Z,50.10
2023-03-06T19:18:57.117Z,50.10
2023-03-06T19:21:23.594Z,50.00
2023-03-06T19:23:50.055Z,50.10
2023-03-06T19:26:16.543Z,50.10
2023-03-06T19:28:43.023Z,50.00
2023-03-06T19:31:09.529Z,50.10
2023-03-06T19:33:36.016Z,50.10
2023-03-06T19:36:02.521Z,50.10
2023-03-06T19:38:29.010Z,50.10
2023-03-06T19:40:55.498Z,50.10
2023-03-06T19:43:21.970Z,50.10
2023-03-06T19:45:48.514Z,50.20
2023-03-06T19:48:15.179Z,50.20
2023-03-06T19:50:42.573Z,50.10
2023-03-06T19:53:09.040Z,50.20
2023-03-06T19:55:35.492Z,50.10
2023-03-06T19:58:01.965Z,50.20
2023-03-06T20:00:28.434Z,50.10
2023-03-06T20:02:54.921Z,50.10
2023-03-06T20:05:21.381Z,50.00
2023-03-06T20:07:48.609Z,50.10
2023-03-06T20:10:15.099Z,50.10
2023-03-06T20:12:41.576Z,50.10
2023-03-06T20:15:08.032Z,50.10
2023-03-06T20:17:34.514Z,50.10
2023-03-06T20:20:01.183Z,50.10
2023-03-06T20:22:27.666Z,50.10
2023-03-06T20:24:54.133Z,50.00
2023-03-06T20:27:20.601Z,50.00
2023-03-06T20:29:47.084Z,50.00
2023-03-06T20:32:13.655Z,50.00
2023-03-06T20:34:40.174Z,50.00
2023-03-06T20:37:06.684Z,49.80
2023-03-06T20:39:33.158Z,49.90
2023-03-06T20:41:59.667Z,49.90
2023-03-06T20:44:26.136Z,49.80
2023-03-06T20:46:52.623Z,50.00
2023-03-06T20:49:19.129Z,50.00
2023-03-06T20:51:45.624Z,49.90
2023-03-06T20:54:12.112Z,49.90
2023-03-06T20:56:38.639Z,49.90
2023-03-06T20:59:05.213Z,49.90
2023-03-06T21:01:31.805Z,49.80
2023-03-06T21:03:58.322Z,49.90
2023-03-06T21:06:24.792Z,49.90
2023-03-06T21:08:54.631Z,49.90
2023-03-06T21:11:21.104Z,49.80
2023-03-06T21:13:48.672Z,49.80
2023-03-06T21:16:15.205Z,49.80
2023-03-06T21:18:41.689Z,49.80
2023-03-06T21:21:08.164Z,49.60
2023-03-06T21:23:34.657Z,49.80
2023-03-06T21:26:06.822Z,49.80
2023-03-06T21:28:33.311Z,49.80
2023-03-06T21:30:59.814Z,49.70
2023-03-06T21:33:26.334Z,49.70
2023-03-06T21:35:52.863Z,49.70
2023-03-06T21:38:19.456Z,49.60
2023-03-06T21:40:46.021Z,49.60
2023-03-06T21:43:12.518Z,49.60
2023-03-06T21:45:39.026Z,49.50
2023-03-06T21:48:05.546Z,49.70
2023-03-06T21:50:32.033Z,49.70
2023-03-06T21:52:58.526Z,49.70
2023-03-06T21:55:24.992Z,49.70
2023-03-06T21:57:51.487Z,49.70
2023-03-06T22:00:17.976Z,49.70
2023-03-06T22:02:44.450Z,49.70
2023-03-06T22:05:10.939Z,49.70
2023-03-06T22:07:37.428Z,49.70
2023-03-06T22:10:03.889Z,49.80
2023-03-06T22:12:30.369Z,49.70
2023-03-06T22:14:56.834Z,49.70
2023-03-06T22:17:23.306Z,49.80
2023-03-06T22:19:49.793Z,49.70
2023-03-06T22:22:16.270Z,49.70
2023-03-06T22:24:48.712Z,49.70
2023-03-06T22:27:15.171Z,49.70
2023-03-06T22:29:41.645Z,49.80
2023-03-06T22:32:08.198Z,49.60
2023-03-06T22:34:34.747Z,49.80
2023-03-06T22:37:01.215Z,49.80
2023-03-06T22:39:27.714Z,49.90
2023-03-06T22:41:54.191Z,49.90
2023-03-06T22:44:20.669Z,49.90
2023-03-06T22:46:47.132Z,49.90
2023-03-06T22:49:13.631Z,49.80
2023-03-06T22:51:40.106Z,49.90
2023-03-06T22:54:06.604Z,49.90
2023-03-06T22:56:33.080Z,50.00
2023-03-06T22:58:59.559Z,50.00
2023-03-06T23:01:26.060Z,50.00
2023-03-06T23:03:52.611Z,50.00
2023-03-06T23:06:19.096Z,50.10
2023-03-06T23:08:45.563Z,50.00
2023-03-06T23:11:12.050Z,49.90
2023-03-06T23:13:38.522Z,50.00
2023-03-06T23:16:06.924Z,50.00
2023-03-06T23:18:33.503Z,50.10
2023-03-06T23:20:59.996Z,50.10
2023-03-06T23:23:26.495Z,50.10
2023-03-06T23:25:53.019Z,50.00
2023-03-06T23:28:19.491Z,50.10
2023-03-06T23:30:45.979Z,50.10
2023-03-06T23:33:12.472Z,50.10
2023-03-06T23:35:39.008Z,50.00
2023-03-06T23:38:05.530Z,50.10
2023-03-06T23:40:32.016Z,50.10
2023-03-06T23:42:58.486Z,50.10
2023-03-06T23:45:24.983Z,50.10
2023-03-06T23:47:51.449Z,50.20
2023-03-06T23:50:18.126Z,50.20
2023-03-06T23:52:44.580Z,50.20
2023-03-06T23:55:11.096Z,50.20
2023-03-06T23:57:37.579Z,50.20
